createdAt,value
2019-02-10T00:00:39.989Z,97374.10
2019-02-10T00:03:10.288Z,97367.16
2019-02-10T00:05:40.571Z,97365.36
2019-02-10T00:08:11.803Z,97365.36
2019-02-10T00:10:42.134Z,97362.48
2019-02-10T00:13:30.369Z,97366.50
2019-02-10T00:16:01.845Z,97370.25
2019-02-10T00:18:32.169Z,97371.66
2019-02-10T00:21:02.477Z,97372.93
2019-02-10T00:23:33.044Z,97364.95
2019-02-10T00:26:06.383Z,97364.59
2019-02-10T00:28:36.717Z,97369.19
2019-02-10T00:31:06.966Z,97369.36
2019-02-10T00:33:38.326Z,97366.67
2019-02-10T00:36:08.739Z,97360.84
2019-02-10T00:38:40.186Z,97356.92
2019-02-10T00:41:10.474Z,97348.11
2019-02-10T00:43:41.025Z,97345.12
2019-02-10T00:46:11.556Z,97338.89
2019-02-10T00:48:41.906Z,97339.09
2019-02-10T00:51:12.417Z,97344.83
2019-02-10T00:53:42.740Z,97340.91
2019-02-10T00:56:13.039Z,97340.91
2019-02-10T00:58:43.284Z,97334.31
2019-02-10T01:01:13.553Z,97326.83
2019-02-10T01:03:43.947Z,97334.88
2019-02-10T01:06:14.183Z,97336.12
2019-02-10T01:08:44.513Z,97331.22
2019-02-10T01:11:14.883Z,97334.88
2019-02-10T01:13:48.782Z,97326.44
2019-02-10T01:16:19.021Z,97326.06
2019-02-10T01:19:08.991Z,97326.24
2019-02-10T01:21:40.941Z,97333.71
2019-02-10T01:24:11.269Z,97325.87
2019-02-10T01:26:41.567Z,97310.25
2019-02-10T01:29:11.872Z,97314.75
2019-02-10T01:31:42.271Z,97308.15
2019-02-10T01:34:12.579Z,97299.70
2019-02-10T01:36:49.504Z,97298.36
2019-02-10T01:39:22.334Z,97303.25
2019-02-10T01:41:52.714Z,97302.78
2019-02-10T01:44:22.973Z,97302.89
2019-02-10T01:46:55.720Z,97298.94
2019-02-10T01:49:26.969Z,97298.09
2019-02-10T01:51:58.335Z,97292.80
2019-02-10T01:54:28.592Z,97290.70
2019-02-10T01:57:00.980Z,97287.55
2019-02-10T01:59:31.341Z,97287.18
2019-02-10T02:02:01.708Z,97286.31
2019-02-10T02:04:32.014Z,97279.70
2019-02-10T02:07:02.894Z,97273.95
2019-02-10T02:09:33.234Z,97275.69
2019-02-10T02:12:04.350Z,97277.86
2019-02-10T02:14:34.563Z,97264.97
2019-02-10T02:17:09.106Z,97268.59
2019-02-10T02:19:39.358Z,97262.92
2019-02-10T02:22:09.653Z,97254.80
2019-02-10T02:24:39.916Z,97250.50
2019-02-10T02:27:10.227Z,97249.63
2019-02-10T02:29:40.659Z,97244.16
2019-02-10T02:32:11.007Z,97249.16
2019-02-10T02:34:41.324Z,97253.28
2019-02-10T02:37:13.232Z,97245.61
2019-02-10T02:39:43.594Z,97246.28
2019-02-10T02:42:14.912Z,97245.70
2019-02-10T02:44:45.255Z,97239.01
2019-02-10T02:47:15.583Z,97234.12
2019-02-10T02:49:45.960Z,97231.07
2019-02-10T02:52:16.303Z,97225.70
2019-02-10T02:54:48.176Z,97225.02
2019-02-10T02:57:18.480Z,97223.09
2019-02-10T02:59:48.844Z,97221.29
2019-02-10T03:02:19.132Z,97217.84
2019-02-10T03:14:42.654Z,97214.39
2019-02-10T03:17:15.823Z,97213.35
2019-02-10T03:19:46.157Z,97218.24
2019-02-10T03:22:16.751Z,97209.33
2019-02-10T03:24:47.033Z,97206.65
2019-02-10T03:27:17.341Z,97201.47
2019-02-10T03:29:47.608Z,97199.66
2019-02-10T03:32:17.964Z,97192.95
2019-02-10T03:34:48.304Z,97190.27
2019-02-10T03:37:26.880Z,97183.58
2019-02-10T03:39:52.387Z,97180.89
2019-02-10T03:42:22.625Z,97174.30
2019-02-10T03:44:53.012Z,97170.64
2019-02-10T03:47:23.393Z,97163.94
2019-02-10T03:49:53.717Z,97162.53
2019-02-10T03:52:24.107Z,97150.17
2019-02-10T03:54:54.519Z,97150.07
2019-02-10T03:57:24.922Z,97150.17
2019-02-10T03:59:55.254Z,97148.73
2019-02-10T04:02:25.480Z,97154.67
2019-02-10T04:04:57.283Z,97163.58
2019-02-10T04:07:35.649Z,97160.02
2019-02-10T04:09:59.562Z,97161.84
2019-02-10T04:12:29.926Z,97163.75
2019-02-10T04:15:01.616Z,97163.17
2019-02-10T04:17:31.954Z,97163.75
2019-02-10T04:20:02.313Z,97168.53
2019-02-10T04:22:32.948Z,97169.22
2019-02-10T04:25:03.234Z,97165.59
2019-02-10T04:27:33.572Z,97169.98
2019-02-10T04:30:03.908Z,97162.81
2019-02-10T04:32:34.277Z,97166.36
2019-02-10T04:35:07.157Z,97160.60
2019-02-10T04:37:45.316Z,97165.67
2019-02-10T04:40:09.821Z,97162.52
2019-02-10T04:42:40.049Z,97150.45
2019-02-10T04:45:10.405Z,97148.65
2019-02-10T04:47:40.773Z,97139.73
2019-02-10T04:50:11.021Z,97133.51
2019-02-10T04:52:41.363Z,97134.09
2019-02-10T04:55:11.809Z,97133.91
2019-02-10T04:57:42.097Z,97130.25
2019-02-10T05:00:12.462Z,97129.02
2019-02-10T05:02:42.794Z,97124.62
2019-02-10T05:05:13.115Z,97117.83
2019-02-10T05:07:43.376Z,97108.45
2019-02-10T05:10:13.601Z,97110.16
2019-02-10T05:12:43.856Z,97106.34
2019-02-10T05:15:14.195Z,97104.13
2019-02-10T05:17:44.492Z,97102.22
2019-02-10T05:20:14.821Z,97106.23
2019-02-10T05:22:45.168Z,97110.26
2019-02-10T05:25:15.486Z,97112.17
2019-02-10T05:27:45.821Z,97114.95
2019-02-10T05:30:16.232Z,97120.79
2019-02-10T05:32:46.667Z,97104.42
2019-02-10T05:35:16.993Z,97097.36
2019-02-10T05:38:04.242Z,97100.50
2019-02-10T05:40:33.785Z,97095.94
2019-02-10T05:43:09.533Z,97087.89
2019-02-10T05:45:51.159Z,97092.57
2019-02-10T05:48:26.937Z,97087.00
2019-02-10T05:50:58.477Z,97078.70
2019-02-10T05:53:34.884Z,97084.32
2019-02-10T05:56:13.334Z,97075.05
2019-02-10T05:58:44.131Z,97068.06
2019-02-10T06:01:50.136Z,97068.94
2019-02-10T06:04:20.702Z,97059.81
2019-02-10T06:06:53.906Z,97055.32
2019-02-10T06:09:24.856Z,97054.09
2019-02-10T06:11:55.193Z,97045.58
2019-02-10T06:14:34.425Z,97048.62
2019-02-10T06:17:06.067Z,97044.02
2019-02-10T06:19:36.800Z,97041.55
2019-02-10T06:22:07.210Z,97034.45
2019-02-10T06:24:37.563Z,97031.67
2019-02-10T06:27:07.944Z,97027.65
2019-02-10T06:29:40.737Z,97025.48
2019-02-10T06:32:10.996Z,97019.14
2019-02-10T06:34:41.427Z,97032.17
2019-02-10T06:37:11.838Z,97038.48
2019-02-10T06:39:42.183Z,97029.50
2019-02-10T06:42:14.069Z,97026.23
2019-02-10T06:44:44.378Z,97028.34
2019-02-10T06:47:15.027Z,97025.73
2019-02-10T06:49:45.643Z,97025.08
2019-02-10T06:52:16.031Z,97026.23
2019-02-10T06:54:54.941Z,97019.91
2019-02-10T06:57:26.705Z,97020.19
2019-02-10T07:00:34.062Z,97019.21
2019-02-10T07:03:39.350Z,97008.89
2019-02-10T07:06:10.287Z,97007.83
2019-02-10T07:08:41.015Z,97009.64
2019-02-10T07:11:11.478Z,97005.05
2019-02-10T07:13:44.166Z,97005.05
2019-02-10T07:16:45.844Z,97001.39
2019-02-10T07:19:51.809Z,97000.91
2019-02-10T07:23:04.719Z,96993.34
2019-02-10T07:26:08.461Z,96993.73
2019-02-10T07:29:31.566Z,96991.99
2019-02-10T07:32:21.644Z,96983.95
2019-02-10T07:35:25.457Z,96985.19
2019-02-10T07:38:22.884Z,96988.62
2019-02-10T07:41:30.059Z,97001.55
2019-02-10T07:44:24.433Z,97002.89
2019-02-10T07:47:47.934Z,96999.23
2019-02-10T07:50:54.755Z,96999.99
2019-02-10T07:53:46.467Z,97002.84
2019-02-10T07:57:06.030Z,96997.87
2019-02-10T08:00:07.179Z,97003.72
2019-02-10T08:03:03.830Z,97001.32
2019-02-10T08:05:59.908Z,96994.90
2019-02-10T08:08:52.480Z,96983.08
2019-02-10T08:11:54.961Z,96971.19
2019-02-10T08:14:36.253Z,96954.63
2019-02-10T08:17:41.940Z,96945.63
2019-02-10T08:20:57.909Z,96928.20
2019-02-10T08:24:11.068Z,96915.63
2019-02-10T08:27:18.294Z,96916.89
2019-02-10T08:30:16.474Z,96910.06
2019-02-10T08:33:42.763Z,96901.91
2019-02-10T08:37:05.833Z,96898.64
2019-02-10T08:40:14.092Z,96884.75
2019-02-10T08:43:29.809Z,96890.48
2019-02-10T08:46:34.691Z,96891.63
2019-02-10T08:49:44.357Z,96877.73
2019-02-10T08:52:51.756Z,96878.21
2019-02-10T08:55:16.742Z,96874.55
2019-02-10T08:57:47.324Z,96856.64
2019-02-10T09:00:17.819Z,96856.08
2019-02-10T09:02:48.140Z,96843.30
2019-02-10T09:05:19.550Z,96831.63
2019-02-10T09:07:49.874Z,96826.61
2019-02-10T09:10:21.630Z,96831.98
2019-02-10T09:12:54.943Z,96827.64
2019-02-10T09:15:24.109Z,96813.84
2019-02-10T09:17:54.446Z,96806.77
2019-02-10T09:20:24.839Z,96802.63
2019-02-10T09:22:56.678Z,96811.42
2019-02-10T09:25:27.046Z,96792.17
2019-02-10T09:27:57.422Z,96791.10
2019-02-10T09:30:27.773Z,96795.59
2019-02-10T09:33:00.020Z,96783.80
2019-02-10T09:35:31.556Z,96768.53
2019-02-10T09:38:01.983Z,96764.16
2019-02-10T09:40:32.276Z,96765.38
2019-02-10T09:43:02.942Z,96766.59
2019-02-10T09:45:33.681Z,96761.23
2019-02-10T09:48:05.587Z,96763.44
2019-02-10T09:50:36.051Z,96769.28
2019-02-10T09:53:06.379Z,96770.03
2019-02-10T09:55:37.488Z,96769.20
2019-02-10T09:58:07.793Z,96759.30
2019-02-10T10:00:39.182Z,96763.23
2019-02-10T10:03:09.609Z,96756.02
2019-02-10T10:05:40.997Z,96741.77
2019-02-10T10:08:13.441Z,96741.77
2019-02-10T10:10:44.062Z,96750.17
2019-02-10T10:13:14.440Z,96745.28
2019-02-10T10:15:47.701Z,96737.23
2019-02-10T10:18:17.154Z,96751.04
2019-02-10T10:20:47.543Z,96724.33
2019-02-10T10:23:18.229Z,96745.20
2019-02-10T10:25:48.536Z,96730.80
2019-02-10T10:28:19.014Z,96731.27
2019-02-10T10:30:49.328Z,96732.13
2019-02-10T10:33:20.743Z,96719.76
2019-02-10T10:35:51.067Z,96713.14
2019-02-10T10:38:21.487Z,96707.03
2019-02-10T10:40:53.561Z,96715.23
2019-02-10T10:43:23.958Z,96689.22
2019-02-10T10:45:54.326Z,96692.89
2019-02-10T10:48:24.697Z,96686.39
2019-02-10T10:50:56.159Z,96694.84
2019-02-10T10:53:28.253Z,96686.31
2019-02-10T10:55:58.605Z,96676.20
2019-02-10T10:58:28.935Z,96671.78
2019-02-10T11:00:59.306Z,96661.79
2019-02-10T11:03:29.835Z,96655.08
2019-02-10T11:06:00.220Z,96643.60
2019-02-10T11:08:30.494Z,96624.22
2019-02-10T11:11:00.821Z,96624.13
2019-02-10T11:13:31.179Z,96613.12
2019-02-10T11:16:01.620Z,96610.32
2019-02-10T11:18:31.962Z,96600.45
2019-02-10T11:21:02.237Z,96593.74
2019-02-10T11:23:32.644Z,96592.40
2019-02-10T11:26:02.955Z,96586.78
2019-02-10T11:28:33.527Z,96585.95
2019-02-10T11:31:03.843Z,96578.73
2019-02-10T11:33:36.373Z,96555.83
2019-02-10T11:36:06.591Z,96554.70
2019-02-10T11:38:36.932Z,96536.30
2019-02-10T11:41:07.226Z,96545.19
2019-02-10T11:43:37.613Z,96535.56
2019-02-10T11:46:07.906Z,96533.84
2019-02-10T11:48:38.622Z,96532.98
2019-02-10T11:51:08.849Z,96533.84
2019-02-10T11:53:39.284Z,96529.34
2019-02-10T11:56:11.690Z,96527.87
2019-02-10T11:58:42.156Z,96519.94
2019-02-10T12:01:12.562Z,96510.81
2019-02-10T12:03:42.854Z,96504.70
2019-02-10T12:06:13.218Z,96501.16
2019-02-10T12:08:43.931Z,96498.47
2019-02-10T12:11:14.310Z,96490.77
2019-02-10T12:13:44.656Z,96490.91
2019-02-10T12:16:15.040Z,96474.80
2019-02-10T12:18:45.679Z,96464.06
2019-02-10T12:21:16.040Z,96456.75
2019-02-10T12:23:46.374Z,96439.78
2019-02-10T12:26:18.827Z,96438.95
2019-02-10T12:28:51.695Z,96435.41
2019-02-10T12:31:22.027Z,96422.86
2019-02-10T12:33:52.675Z,96420.05
2019-02-10T12:36:22.983Z,96409.44
2019-02-10T12:38:53.479Z,96404.90
2019-02-10T12:41:25.613Z,96407.72
2019-02-10T12:43:55.839Z,96404.07
2019-02-10T12:46:30.157Z,96395.51
2019-02-10T12:49:03.022Z,96393.34
2019-02-10T12:51:33.316Z,96381.61
2019-02-10T12:54:03.658Z,96375.77
2019-02-10T12:56:34.018Z,96379.41
2019-02-10T12:59:07.579Z,96375.89
2019-02-10T13:01:38.912Z,96373.56
2019-02-10T13:04:09.274Z,96360.63
2019-02-10T13:06:39.998Z,96357.33
2019-02-10T13:09:12.322Z,96349.53
2019-02-10T13:11:42.744Z,96337.83
2019-02-10T13:14:13.148Z,96337.70
2019-02-10T13:16:43.944Z,96321.73
2019-02-10T13:19:14.467Z,96323.08
2019-02-10T13:21:44.900Z,96325.76
2019-02-10T13:24:15.264Z,96315.38
2019-02-10T13:26:45.576Z,96302.08
2019-02-10T13:29:16.174Z,96304.64
2019-02-10T13:31:46.567Z,96299.27
2019-02-10T13:34:16.970Z,96289.39
2019-02-10T13:36:48.384Z,96292.21
2019-02-10T13:39:18.812Z,96283.55
2019-02-10T13:41:47.481Z,96274.77
2019-02-10T13:44:17.796Z,96253.30
2019-02-10T13:46:47.124Z,96264.52
2019-02-10T13:49:17.561Z,96257.42
2019-02-10T13:51:48.895Z,96244.00
2019-02-10T13:54:19.272Z,96250.37
2019-02-10T13:56:49.621Z,96254.02
2019-02-10T13:59:19.923Z,96237.08
2019-02-10T14:01:50.341Z,96234.13
2019-02-10T14:04:20.616Z,96238.42
2019-02-10T14:06:50.976Z,96242.55
2019-02-10T14:09:25.240Z,96230.85
2019-02-10T14:11:55.666Z,96221.70
2019-02-10T14:14:25.895Z,96220.84
2019-02-10T14:16:56.328Z,96213.76
2019-02-10T14:19:26.698Z,96208.39
2019-02-10T14:21:56.939Z,96200.61
2019-02-10T14:24:28.339Z,96202.43
2019-02-10T14:26:58.723Z,96203.77
2019-02-10T14:29:29.057Z,96189.02
2019-02-10T14:31:59.385Z,96192.55
2019-02-10T14:34:30.028Z,96176.08
2019-02-10T14:37:00.382Z,96171.22
2019-02-10T14:39:30.760Z,96162.07
2019-02-10T14:42:01.114Z,96166.95
2019-02-10T14:44:31.679Z,96153.54
2019-02-10T14:47:01.916Z,96157.19
2019-02-10T14:49:32.309Z,96146.45
2019-02-10T14:52:02.904Z,96139.40
2019-02-10T14:54:33.206Z,96150.99
2019-02-10T14:57:03.635Z,96127.67
2019-02-10T14:59:33.958Z,96140.36
2019-02-10T15:02:06.116Z,96130.14
2019-02-10T15:04:38.974Z,96124.40
2019-02-10T15:07:11.345Z,96124.88
2019-02-10T15:09:41.729Z,96126.60
2019-02-10T15:12:12.069Z,96104.41
2019-02-10T15:14:42.473Z,96107.44
2019-02-10T15:17:15.338Z,96101.00
2019-02-10T15:19:45.698Z,96105.75
2019-02-10T15:22:16.039Z,96084.53
2019-02-10T15:24:46.648Z,96068.44
2019-02-10T15:27:16.984Z,96078.81
2019-02-10T15:29:47.297Z,96056.50
2019-02-10T15:32:17.603Z,96068.57
2019-02-10T15:34:47.959Z,96066.50
2019-02-10T15:37:18.301Z,96065.64
2019-02-10T15:39:48.700Z,96065.16
2019-02-10T15:42:20.092Z,96060.80
2019-02-10T15:44:50.437Z,96057.87
2019-02-10T15:47:20.925Z,96055.19
2019-02-10T15:49:51.295Z,96060.07
2019-02-10T15:52:26.879Z,96054.81
2019-02-10T15:54:57.139Z,96059.21
2019-02-10T15:57:27.517Z,96058.01
2019-02-10T15:59:57.835Z,96055.80
2019-02-10T16:02:28.171Z,96048.38
2019-02-10T16:04:58.808Z,96044.35
2019-02-10T16:07:29.104Z,96043.88
2019-02-10T16:09:59.478Z,96047.52
2019-02-10T16:12:29.797Z,96040.95
2019-02-10T16:15:00.695Z,96041.42
2019-02-10T16:17:32.943Z,96029.36
2019-02-10T16:20:03.499Z,96028.88
2019-02-10T16:22:33.798Z,96029.49
2019-02-10T16:25:04.130Z,96016.47
2019-02-10T16:27:34.419Z,96017.80
2019-02-10T16:30:05.612Z,96016.47
2019-02-10T16:32:37.158Z,96015.13
2019-02-10T16:35:07.878Z,96019.14
2019-02-10T16:37:39.920Z,96016.09
2019-02-10T16:40:12.880Z,96009.03
2019-02-10T16:42:43.336Z,96001.06
2019-02-10T16:45:17.781Z,95988.64
2019-02-10T16:47:48.171Z,95982.08
2019-02-10T16:50:18.580Z,95989.37
2019-02-10T16:52:48.980Z,95985.83
2019-02-10T16:55:19.424Z,95981.94
2019-02-10T16:57:50.083Z,95968.05
2019-02-10T17:00:20.500Z,95963.03
2019-02-10T17:02:50.883Z,95957.80
2019-02-10T17:05:21.253Z,95960.00
2019-02-10T17:07:51.931Z,95963.03
2019-02-10T17:10:22.379Z,95959.73
2019-02-10T17:12:52.832Z,95950.71
2019-02-10T17:15:23.160Z,95950.82
2019-02-10T17:17:53.511Z,95955.56
2019-02-10T17:20:23.856Z,95956.91
2019-02-10T17:22:56.733Z,95955.45
2019-02-10T17:25:27.123Z,95955.08
2019-02-10T17:27:57.484Z,95952.88
2019-02-10T17:30:27.842Z,95934.48
2019-02-10T17:33:00.284Z,95936.68
2019-02-10T17:35:30.618Z,95940.19
2019-02-10T17:38:00.960Z,95937.16
2019-02-10T17:40:37.423Z,95925.33
2019-02-10T17:43:07.821Z,95915.08
2019-02-10T17:45:38.203Z,95928.02
2019-02-10T17:48:08.518Z,95920.45
2019-02-10T17:50:39.180Z,95920.45
2019-02-10T17:53:12.683Z,95912.40
2019-02-10T17:55:43.205Z,95898.84
2019-02-10T17:58:13.516Z,95902.02
2019-02-10T18:00:46.671Z,95895.82
2019-02-10T18:03:18.571Z,95893.14
2019-02-10T18:05:48.967Z,95880.69
2019-02-10T18:08:19.279Z,95884.95
2019-02-10T18:10:50.717Z,95881.78
2019-02-10T18:13:21.000Z,95882.27
2019-02-10T18:16:28.738Z,95877.39
2019-02-10T18:19:18.062Z,95871.88
2019-02-10T18:22:22.265Z,95861.67
2019-02-10T18:25:11.497Z,95856.78
2019-02-10T18:28:05.046Z,95851.05
2019-02-10T18:30:51.731Z,95847.39
2019-02-10T18:33:44.217Z,95848.36
2019-02-10T18:36:39.120Z,95841.03
2019-02-10T18:39:37.269Z,95844.58
2019-02-10T18:42:26.449Z,95843.72
2019-02-10T18:45:31.105Z,95820.09
2019-02-10T18:48:37.347Z,95822.63
2019-02-10T18:51:29.571Z,95810.19
2019-02-10T18:54:22.383Z,95816.06
2019-02-10T18:57:06.439Z,95814.58
2019-02-10T18:59:55.706Z,95805.53
2019-02-10T19:02:45.908Z,95797.29
2019-02-10T19:05:35.215Z,95809.47
2019-02-10T19:08:13.691Z,95793.13
2019-02-10T19:11:14.909Z,95801.40
2019-02-10T19:14:06.860Z,95790.30
2019-02-10T19:16:54.752Z,95777.51
2019-02-10T19:19:33.112Z,95777.73
2019-02-10T19:22:15.726Z,95763.22
2019-02-10T19:25:06.304Z,95759.05
2019-02-10T19:27:53.677Z,95749.66
2019-02-10T19:30:46.956Z,95744.63
2019-02-10T19:33:38.374Z,95742.80
2019-02-10T19:36:28.276Z,95731.22
2019-02-10T19:39:17.216Z,95734.42
2019-02-10T19:42:09.121Z,95728.05
2019-02-10T19:45:07.102Z,95734.61
2019-02-10T19:47:48.186Z,95729.95
2019-02-10T19:50:53.603Z,95738.86
2019-02-10T19:53:53.506Z,95731.38
2019-02-10T19:56:41.733Z,95738.72
2019-02-10T19:59:49.406Z,95745.80
2019-02-10T20:02:37.772Z,95733.24
2019-02-10T20:05:33.025Z,95746.99
2019-02-10T20:08:17.097Z,95737.34
2019-02-10T20:11:06.334Z,95730.75
2019-02-10T20:13:58.630Z,95725.27
2019-02-10T20:16:56.844Z,95719.39
2019-02-10T20:19:44.768Z,95728.66
2019-02-10T20:22:21.025Z,95721.81
2019-02-10T20:25:13.152Z,95724.13
2019-02-10T20:27:56.555Z,95708.73
2019-02-10T20:30:46.322Z,95728.14
2019-02-10T20:33:35.576Z,95708.39
2019-02-10T20:36:26.374Z,95702.02
2019-02-10T20:39:09.834Z,95702.39
2019-02-10T20:41:48.150Z,95700.20
2019-02-10T20:44:37.495Z,95701.39
2019-02-10T20:47:29.842Z,95691.66
2019-02-10T20:50:25.045Z,95684.95
2019-02-10T20:53:20.781Z,95684.32
2019-02-10T20:56:19.201Z,95680.63
2019-02-10T20:59:06.336Z,95694.42
2019-02-10T21:02:07.853Z,95703.45
2019-02-10T21:04:56.325Z,95692.86
2019-02-10T21:07:34.114Z,95694.69
2019-02-10T21:10:26.347Z,95697.25
2019-02-10T21:13:18.833Z,95693.94
2019-02-10T21:16:12.202Z,95685.52
2019-02-10T21:19:00.493Z,95688.20
2019-02-10T21:21:52.696Z,95704.78
2019-02-10T21:24:38.318Z,95708.47
2019-02-10T21:27:27.069Z,95714.17
2019-02-10T21:30:14.604Z,95712.02
2019-02-10T21:33:02.772Z,95701.28
2019-02-10T21:36:03.829Z,95708.81
2019-02-10T21:38:48.302Z,95707.36
2019-02-10T21:41:34.604Z,95695.39
2019-02-10T21:44:18.848Z,95692.70
2019-02-10T21:46:53.865Z,95687.48
2019-02-10T21:49:26.082Z,95679.92
2019-02-10T21:51:56.540Z,95683.46
2019-02-10T21:54:26.868Z,95683.31
2019-02-10T21:56:56.949Z,95682.69
2019-02-10T21:59:28.319Z,95672.95
2019-02-10T22:01:58.552Z,95685.03
2019-02-10T22:04:28.888Z,95683.83
2019-02-10T22:06:59.197Z,95679.81
2019-02-10T22:09:30.600Z,95687.34
2019-02-10T22:12:00.926Z,95691.37
2019-02-10T22:14:31.544Z,95704.30
2019-02-10T22:17:01.805Z,95697.59
2019-02-10T22:19:32.058Z,95717.01
2019-02-10T22:22:02.340Z,95727.59
2019-02-10T22:24:32.600Z,95719.35
2019-02-10T22:27:03.265Z,95722.38
2019-02-10T22:29:33.581Z,95716.45
2019-02-10T22:32:03.940Z,95732.88
2019-02-10T22:34:34.277Z,95728.66
2019-02-10T22:37:04.622Z,95734.86
2019-02-10T22:39:34.875Z,95741.70
2019-02-10T22:42:05.118Z,95743.53
2019-02-10T22:44:35.431Z,95755.27
2019-02-10T22:47:05.819Z,95764.66
2019-02-10T22:49:36.166Z,95760.27
2019-02-10T22:52:06.513Z,95753.70
2019-02-10T22:54:36.869Z,95758.73
2019-02-10T22:57:08.115Z,95762.38
2019-02-10T22:59:38.413Z,95766.17
2019-02-10T23:02:08.715Z,95777.77
2019-02-10T23:04:39.915Z,95789.98
2019-02-10T23:07:10.278Z,95807.42
2019-02-10T23:09:40.654Z,95823.15
2019-02-10T23:12:10.987Z,95841.10
2019-02-10T23:14:41.342Z,95855.34
2019-02-10T23:17:11.721Z,95866.70
2019-02-10T23:19:42.175Z,95884.77
2019-02-10T23:22:12.493Z,95908.08
2019-02-10T23:24:42.763Z,95925.14
2019-02-10T23:27:14.044Z,95943.92
2019-02-10T23:29:44.387Z,95957.96
2019-02-10T23:32:14.739Z,95968.83
2019-02-10T23:34:45.052Z,95978.22
2019-02-10T23:37:15.438Z,95985.55
2019-02-10T23:39:45.785Z,95992.87
2019-02-10T23:42:16.109Z,96006.77
2019-02-10T23:44:46.425Z,96018.98
2019-02-10T23:47:16.698Z,96032.01
2019-02-10T23:49:47.292Z,96031.28
2019-02-10T23:52:19.158Z,96040.67
2019-02-10T23:54:49.464Z,96038.50
2019-02-10T23:57:19.735Z,96037.27
2019-02-10T23:59:50.170Z,96033.38
